sensor_id;sensor_type;location;lat;lon;timestamp;pressure;altitude;pressure_sealevel;temperature;humidity
76990;BME280;65924;47.250;11.332;2023-05-10T00:00:35;94272.81;;;17.88;70.06
76990;BME280;65924;47.250;11.332;2023-05-10T00:01:13;94274.11;;;17.87;69.94
76990;BME280;65924;47.250;11.332;2023-05-10T00:01:52;94267.27;;;17.86;70.36
76990;BME280;65924;47.250;11.332;2023-05-10T00:02:30;94267.78;;;17.86;71.03
76990;BME280;65924;47.250;11.332;2023-05-10T00:03:09;94268.10;;;17.86;71.42
76990;BME280;65924;47.250;11.332;2023-05-10T00:03:47;94268.41;;;17.87;71.78
76990;BME280;65924;47.250;11.332;2023-05-10T00:04:26;94271.52;;;17.89;72.15
76990;BME280;65924;47.250;11.332;2023-05-10T00:05:06;94269.78;;;17.89;71.24
76990;BME280;65924;47.250;11.332;2023-05-10T00:05:44;94274.65;;;17.89;70.92
76990;BME280;65924;47.250;11.332;2023-05-10T00:06:23;94269.40;;;17.86;71.01
76990;BME280;65924;47.250;11.332;2023-05-10T00:07:02;94269.78;;;17.87;70.48
76990;BME280;65924;47.250;11.332;2023-05-10T00:07:40;94269.81;;;17.87;71.12
76990;BME280;65924;47.250;11.332;2023-05-10T00:08:22;94272.52;;;17.87;71.17
76990;BME280;65924;47.250;11.332;2023-05-10T00:09:01;94269.60;;;17.87;71.66
76990;BME280;65924;47.250;11.332;2023-05-10T00:09:40;94271.47;;;17.87;71.14
76990;BME280;65924;47.250;11.332;2023-05-10T00:10:18;94270.38;;;17.86;71.62
76990;BME280;65924;47.250;11.332;2023-05-10T00:10:57;94268.42;;;17.85;71.16
76990;BME280;65924;47.250;11.332;2023-05-10T00:11:35;94268.06;;;17.83;70.95
76990;BME280;65924;47.250;11.332;2023-05-10T00:12:14;94269.52;;;17.83;71.74
76990;BME280;65924;47.250;11.332;2023-05-10T00:12:52;94270.23;;;17.83;72.08
76990;BME280;65924;47.250;11.332;2023-05-10T00:13:31;94272.23;;;17.83;72.64
76990;BME280;65924;47.250;11.332;2023-05-10T00:14:09;94271.23;;;17.83;72.07
76990;BME280;65924;47.250;11.332;2023-05-10T00:14:48;94268.90;;;17.82;71.59
76990;BME280;65924;47.250;11.332;2023-05-10T00:15:26;94266.61;;;17.83;71.22
76990;BME280;65924;47.250;11.332;2023-05-10T00:16:05;94269.52;;;17.83;71.58
76990;BME280;65924;47.250;11.332;2023-05-10T00:16:44;94269.58;;;17.82;71.34
76990;BME280;65924;47.250;11.332;2023-05-10T00:17:22;94267.05;;;17.82;71.24
76990;BME280;65924;47.250;11.332;2023-05-10T00:18:01;94270.96;;;17.82;72.13
76990;BME280;65924;47.250;11.332;2023-05-10T00:18:40;94269.77;;;17.82;72.11
76990;BME280;65924;47.250;11.332;2023-05-10T00:19:18;94268.71;;;17.83;72.44
76990;BME280;65924;47.250;11.332;2023-05-10T00:19:57;94268.19;;;17.82;72.35
76990;BME280;65924;47.250;11.332;2023-05-10T00:20:35;94269.55;;;17.83;71.47
76990;BME280;65924;47.250;11.332;2023-05-10T00:21:14;94267.86;;;17.82;71.67
76990;BME280;65924;47.250;11.332;2023-05-10T00:21:52;94263.25;;;17.80;72.08
76990;BME280;65924;47.250;11.332;2023-05-10T00:22:31;94266.66;;;17.82;72.49
76990;BME280;65924;47.250;11.332;2023-05-10T00:23:10;94268.09;;;17.82;71.74
76990;BME280;65924;47.250;11.332;2023-05-10T00:23:48;94267.46;;;17.81;71.71
76990;BME280;65924;47.250;11.332;2023-05-10T00:24:27;94267.15;;;17.81;72.23
76990;BME280;65924;47.250;11.332;2023-05-10T00:25:06;94267.98;;;17.81;71.97
76990;BME280;65924;47.250;11.332;2023-05-10T00:25:45;94267.60;;;17.80;71.63
76990;BME280;65924;47.250;11.332;2023-05-10T00:26:23;94266.65;;;17.79;71.53
76990;BME280;65924;47.250;11.332;2023-05-10T00:27:03;94266.02;;;17.78;71.87
76990;BME280;65924;47.250;11.332;2023-05-10T00:27:42;94265.87;;;17.78;71.70
76990;BME280;65924;47.250;11.332;2023-05-10T00:28:21;94266.09;;;17.78;72.76
76990;BME280;65924;47.250;11.332;2023-05-10T00:28:59;94265.61;;;17.77;73.27
76990;BME280;65924;47.250;11.332;2023-05-10T00:29:38;94267.67;;;17.77;73.19
76990;BME280;65924;47.250;11.332;2023-05-10T00:30:16;94268.09;;;17.77;72.34
76990;BME280;65924;47.250;11.332;2023-05-10T00:30:55;94265.80;;;17.76;71.70
76990;BME280;65924;47.250;11.332;2023-05-10T00:31:37;94265.38;;;17.75;71.58
76990;BME280;65924;47.250;11.332;2023-05-10T00:32:16;94266.64;;;17.74;73.09
76990;BME280;65924;47.250;11.332;2023-05-10T00:32:55;94266.02;;;17.73;72.45
76990;BME280;65924;47.250;11.332;2023-05-10T00:33:33;94264.66;;;17.72;71.82
76990;BME280;65924;47.250;11.332;2023-05-10T00:34:11;94267.83;;;17.73;71.53
76990;BME280;65924;47.250;11.332;2023-05-10T00:34:50;94269.21;;;17.73;71.54
76990;BME280;65924;47.250;11.332;2023-05-10T00:35:29;94267.54;;;17.72;71.62
76990;BME280;65924;47.250;11.332;2023-05-10T00:36:07;94267.79;;;17.73;72.45
76990;BME280;65924;47.250;11.332;2023-05-10T00:36:46;94266.55;;;17.73;72.66
76990;BME280;65924;47.250;11.332;2023-05-10T00:37:25;94270.05;;;17.74;72.38
76990;BME280;65924;47.250;11.332;2023-05-10T00:38:03;94266.79;;;17.74;72.14
76990;BME280;65924;47.250;11.332;2023-05-10T00:38:42;94271.21;;;17.75;72.16
76990;BME280;65924;47.250;11.332;2023-05-10T00:39:20;94267.60;;;17.75;72.59
76990;BME280;65924;47.250;11.332;2023-05-10T00:39:59;94267.77;;;17.75;71.94
76990;BME280;65924;47.250;11.332;2023-05-10T00:40:39;94271.17;;;17.75;71.90
76990;BME280;65924;47.250;11.332;2023-05-10T00:41:20;94270.14;;;17.75;72.58
76990;BME280;65924;47.250;11.332;2023-05-10T00:42:00;94271.79;;;17.76;72.51
76990;BME280;65924;47.250;11.332;2023-05-10T00:42:39;94270.21;;;17.76;72.11
76990;BME280;65924;47.250;11.332;2023-05-10T00:43:18;94271.89;;;17.76;71.97
76990;BME280;65924;47.250;11.332;2023-05-10T00:43:56;94268.48;;;17.76;72.12
76990;BME280;65924;47.250;11.332;2023-05-10T00:44:35;94266.35;;;17.77;72.84
76990;BME280;65924;47.250;11.332;2023-05-10T00:45:14;94270.73;;;17.78;72.44
76990;BME280;65924;47.250;11.332;2023-05-10T00:45:52;94266.45;;;17.78;71.98
76990;BME280;65924;47.250;11.332;2023-05-10T00:46:31;94269.65;;;17.78;72.13
76990;BME280;65924;47.250;11.332;2023-05-10T00:47:10;94267.27;;;17.78;71.94
76990;BME280;65924;47.250;11.332;2023-05-10T00:47:50;94269.90;;;17.78;71.89
76990;BME280;65924;47.250;11.332;2023-05-10T00:48:34;94269.61;;;17.77;71.98
76990;BME280;65924;47.250;11.332;2023-05-10T00:49:13;94267.54;;;17.77;72.14
76990;BME280;65924;47.250;11.332;2023-05-10T00:49:51;94269.77;;;17.77;72.38
76990;BME280;65924;47.250;11.332;2023-05-10T00:50:31;94270.33;;;17.77;72.26
76990;BME280;65924;47.250;11.332;2023-05-10T00:51:11;94267.93;;;17.77;73.44
76990;BME280;65924;47.250;11.332;2023-05-10T00:51:50;94269.15;;;17.76;72.75
76990;BME280;65924;47.250;11.332;2023-05-10T00:52:29;94270.57;;;17.76;72.17
76990;BME280;65924;47.250;11.332;2023-05-10T00:53:10;94270.98;;;17.75;71.88
76990;BME280;65924;47.250;11.332;2023-05-10T00:53:49;94265.21;;;17.75;72.98
76990;BME280;65924;47.250;11.332;2023-05-10T00:54:29;94268.46;;;17.75;72.81
76990;BME280;65924;47.250;11.332;2023-05-10T00:55:10;94266.76;;;17.73;72.07
76990;BME280;65924;47.250;11.332;2023-05-10T00:55:50;94268.50;;;17.74;71.41
76990;BME280;65924;47.250;11.332;2023-05-10T00:56:29;94268.67;;;17.74;71.65
76990;BME280;65924;47.250;11.332;2023-05-10T00:57:08;94270.27;;;17.74;72.07
76990;BME280;65924;47.250;11.332;2023-05-10T00:57:47;94270.31;;;17.74;72.27
76990;BME280;65924;47.250;11.332;2023-05-10T00:58:26;94268.73;;;17.74;72.27
76990;BME280;65924;47.250;11.332;2023-05-10T00:59:09;94270.34;;;17.73;72.06
76990;BME280;65924;47.250;11.332;2023-05-10T00:59:48;94270.09;;;17.72;71.91
76990;BME280;65924;47.250;11.332;2023-05-10T01:00:27;94268.77;;;17.72;72.65
76990;BME280;65924;47.250;11.332;2023-05-10T01:01:05;94267.05;;;17.72;72.56
76990;BME280;65924;47.250;11.332;2023-05-10T01:01:45;94269.61;;;17.69;72.15
76990;BME280;65924;47.250;11.332;2023-05-10T01:02:24;94268.91;;;17.68;71.95
76990;BME280;65924;47.250;11.332;2023-05-10T01:03:03;94266.80;;;17.67;72.15
76990;BME280;65924;47.250;11.332;2023-05-10T01:03:41;94266.21;;;17.66;72.16
76990;BME280;65924;47.250;11.332;2023-05-10T01:04:20;94266.95;;;17.65;72.44
76990;BME280;65924;47.250;11.332;2023-05-10T01:05:03;94264.23;;;17.65;72.22
76990;BME280;65924;47.250;11.332;2023-05-10T01:05:42;94266.56;;;17.64;72.54
76990;BME280;65924;47.250;11.332;2023-05-10T01:06:20;94264.72;;;17.64;72.62
76990;BME280;65924;47.250;11.332;2023-05-10T01:06:59;94266.95;;;17.64;72.42
76990;BME280;65924;47.250;11.332;2023-05-10T01:07:38;94264.23;;;17.63;72.19
76990;BME280;65924;47.250;11.332;2023-05-10T01:08:17;94267.52;;;17.63;72.63
76990;BME280;65924;47.250;11.332;2023-05-10T01:08:56;94266.50;;;17.63;72.24
76990;BME280;65924;47.250;11.332;2023-05-10T01:09:34;94265.52;;;17.64;72.92
76990;BME280;65924;47.250;11.332;2023-05-10T01:10:14;94265.83;;;17.65;73.02
76990;BME280;65924;47.250;11.332;2023-05-10T01:10:54;94264.80;;;17.65;73.82
76990;BME280;65924;47.250;11.332;2023-05-10T01:11:37;94269.27;;;17.65;73.72
76990;BME280;65924;47.250;11.332;2023-05-10T01:12:16;94270.15;;;17.64;73.72
76990;BME280;65924;47.250;11.332;2023-05-10T01:12:55;94266.05;;;17.64;73.05
76990;BME280;65924;47.250;11.332;2023-05-10T01:13:39;94264.89;;;17.64;73.24
76990;BME280;65924;47.250;11.332;2023-05-10T01:14:20;94263.80;;;17.64;73.53
76990;BME280;65924;47.250;11.332;2023-05-10T01:15:00;94265.59;;;17.64;72.92
76990;BME280;65924;47.250;11.332;2023-05-10T01:15:39;94265.92;;;17.62;72.51
76990;BME280;65924;47.250;11.332;2023-05-10T01:16:19;94266.52;;;17.61;72.50
76990;BME280;65924;47.250;11.332;2023-05-10T01:17:00;94266.71;;;17.61;72.76
76990;BME280;65924;47.250;11.332;2023-05-10T01:17:40;94265.45;;;17.60;72.66
76990;BME280;65924;47.250;11.332;2023-05-10T01:18:21;94262.39;;;17.60;72.34
76990;BME280;65924;47.250;11.332;2023-05-10T01:19:00;94266.41;;;17.59;72.40
76990;BME280;65924;47.250;11.332;2023-05-10T01:19:39;94264.58;;;17.58;72.59
76990;BME280;65924;47.250;11.332;2023-05-10T01:20:17;94264.67;;;17.58;72.77
76990;BME280;65924;47.250;11.332;2023-05-10T01:22:04;94265.98;;;17.58;73.33
76990;BME280;65924;47.250;11.332;2023-05-10T01:26:13;94265.33;;;17.54;72.51
76990;BME280;65924;47.250;11.332;2023-05-10T01:28:17;94264.70;;;17.53;73.45
76990;BME280;65924;47.250;11.332;2023-05-10T01:33:24;94261.86;;;17.46;72.37
76990;BME280;65924;47.250;11.332;2023-05-10T01:34:12;94264.02;;;17.45;73.54
76990;BME280;65924;47.250;11.332;2023-05-10T01:36:58;94263.98;;;17.44;72.44
76990;BME280;65924;47.250;11.332;2023-05-10T01:38:48;94262.13;;;17.42;72.03
76990;BME280;65924;47.250;11.332;2023-05-10T01:39:40;94262.84;;;17.42;71.92
76990;BME280;65924;47.250;11.332;2023-05-10T01:40:48;94260.99;;;17.41;72.34
76990;BME280;65924;47.250;11.332;2023-05-10T01:41:36;94263.23;;;17.39;72.60
76990;BME280;65924;47.250;11.332;2023-05-10T01:42:20;94263.89;;;17.40;72.53
76990;BME280;65924;47.250;11.332;2023-05-10T01:43:04;94265.51;;;17.39;72.99
76990;BME280;65924;47.250;11.332;2023-05-10T01:45:11;94267.46;;;17.38;73.41
76990;BME280;65924;47.250;11.332;2023-05-10T01:46:05;94265.36;;;17.37;72.61
76990;BME280;65924;47.250;11.332;2023-05-10T01:46:55;94273.47;;;17.34;73.19
76990;BME280;65924;47.250;11.332;2023-05-10T01:48:15;94271.50;;;17.33;73.79
76990;BME280;65924;47.250;11.332;2023-05-10T01:48:57;94272.89;;;17.33;72.81
76990;BME280;65924;47.250;11.332;2023-05-10T01:49:45;94274.59;;;17.33;72.41
76990;BME280;65924;47.250;11.332;2023-05-10T01:50:29;94274.16;;;17.32;72.54
76990;BME280;65924;47.250;11.332;2023-05-10T01:51:08;94277.55;;;17.31;73.99
76990;BME280;65924;47.250;11.332;2023-05-10T01:51:50;94276.77;;;17.29;74.38
76990;BME280;65924;47.250;11.332;2023-05-10T01:52:41;94278.38;;;17.27;73.84
76990;BME280;65924;47.250;11.332;2023-05-10T01:53:21;94276.77;;;17.24;73.65
76990;BME280;65924;47.250;11.332;2023-05-10T01:54:02;94281.02;;;17.24;73.30
76990;BME280;65924;47.250;11.332;2023-05-10T01:54:50;94278.46;;;17.24;73.83
76990;BME280;65924;47.250;11.332;2023-05-10T01:55:35;94281.40;;;17.24;73.90
76990;BME280;65924;47.250;11.332;2023-05-10T01:56:16;94284.36;;;17.23;74.20
76990;BME280;65924;47.250;11.332;2023-05-10T01:57:00;94284.80;;;17.23;74.20
76990;BME280;65924;47.250;11.332;2023-05-10T01:57:43;94283.72;;;17.21;73.53
76990;BME280;65924;47.250;11.332;2023-05-10T01:58:27;94283.85;;;17.20;73.44
76990;BME280;65924;47.250;11.332;2023-05-10T01:59:12;94287.06;;;17.19;73.45
76990;BME280;65924;47.250;11.332;2023-05-10T01:59:52;94285.73;;;17.17;72.69
76990;BME280;65924;47.250;11.332;2023-05-10T02:00:33;94286.61;;;17.14;73.24
76990;BME280;65924;47.250;11.332;2023-05-10T02:01:13;94289.55;;;17.14;73.31
76990;BME280;65924;47.250;11.332;2023-05-10T02:01:52;94290.50;;;17.13;73.38
76990;BME280;65924;47.250;11.332;2023-05-10T02:02:37;94288.89;;;17.12;73.55
76990;BME280;65924;47.250;11.332;2023-05-10T02:03:20;94292.88;;;17.12;73.38
76990;BME280;65924;47.250;11.332;2023-05-10T02:04:01;94294.64;;;17.10;75.55
76990;BME280;65924;47.250;11.332;2023-05-10T02:04:42;94296.22;;;17.07;75.99
76990;BME280;65924;47.250;11.332;2023-05-10T02:05:22;94295.31;;;17.06;76.74
76990;BME280;65924;47.250;11.332;2023-05-10T02:06:01;94294.92;;;17.05;76.63
76990;BME280;65924;47.250;11.332;2023-05-10T02:06:41;94297.34;;;17.05;77.15
76990;BME280;65924;47.250;11.332;2023-05-10T02:07:21;94298.49;;;17.04;77.47
76990;BME280;65924;47.250;11.332;2023-05-10T02:08:01;94297.93;;;17.03;76.93
76990;BME280;65924;47.250;11.332;2023-05-10T02:08:41;94295.77;;;17.02;77.82
76990;BME280;65924;47.250;11.332;2023-05-10T02:09:22;94297.23;;;17.03;78.46
76990;BME280;65924;47.250;11.332;2023-05-10T02:10:04;94293.78;;;17.03;78.51
76990;BME280;65924;47.250;11.332;2023-05-10T02:10:45;94293.48;;;17.02;76.92
76990;BME280;65924;47.250;11.332;2023-05-10T02:11:24;94301.21;;;17.02;77.68
76990;BME280;65924;47.250;11.332;2023-05-10T02:12:05;94300.23;;;17.02;77.96
76990;BME280;65924;47.250;11.332;2023-05-10T02:12:47;94300.63;;;17.01;77.73
76990;BME280;65924;47.250;11.332;2023-05-10T02:13:27;94302.29;;;17.00;77.83
76990;BME280;65924;47.250;11.332;2023-05-10T02:14:09;94302.41;;;16.99;76.56
76990;BME280;65924;47.250;11.332;2023-05-10T02:14:50;94301.33;;;16.97;77.01
76990;BME280;65924;47.250;11.332;2023-05-10T02:15:31;94301.73;;;16.95;76.72
76990;BME280;65924;47.250;11.332;2023-05-10T02:16:11;94302.60;;;16.93;76.20
76990;BME280;65924;47.250;11.332;2023-05-10T02:16:51;94303.15;;;16.91;76.86
76990;BME280;65924;47.250;11.332;2023-05-10T02:17:32;94307.24;;;16.89;76.72
76990;BME280;65924;47.250;11.332;2023-05-10T02:18:13;94303.30;;;16.86;78.05
76990;BME280;65924;47.250;11.332;2023-05-10T02:18:54;94307.40;;;16.86;77.20
76990;BME280;65924;47.250;11.332;2023-05-10T02:19:39;94306.53;;;16.83;77.40
76990;BME280;65924;47.250;11.332;2023-05-10T02:20:20;94305.52;;;16.80;78.04
76990;BME280;65924;47.250;11.332;2023-05-10T02:21:01;94302.29;;;16.78;78.38
76990;BME280;65924;47.250;11.332;2023-05-10T02:21:41;94308.40;;;16.81;78.11
76990;BME280;65924;47.250;11.332;2023-05-10T02:22:21;94309.19;;;16.80;77.03
76990;BME280;65924;47.250;11.332;2023-05-10T02:23:01;94307.11;;;16.78;76.60
76990;BME280;65924;47.250;11.332;2023-05-10T02:23:42;94308.36;;;16.77;76.70
76990;BME280;65924;47.250;11.332;2023-05-10T02:24:22;94310.74;;;16.78;76.77
76990;BME280;65924;47.250;11.332;2023-05-10T02:25:03;94307.14;;;16.78;76.92
76990;BME280;65924;47.250;11.332;2023-05-10T02:25:43;94310.85;;;16.78;76.85
76990;BME280;65924;47.250;11.332;2023-05-10T02:26:24;94308.55;;;16.79;77.43
76990;BME280;65924;47.250;11.332;2023-05-10T02:27:04;94308.16;;;16.79;76.85
76990;BME280;65924;47.250;11.332;2023-05-10T02:27:44;94308.29;;;16.80;76.47
76990;BME280;65924;47.250;11.332;2023-05-10T02:28:26;94311.48;;;16.79;76.55
76990;BME280;65924;47.250;11.332;2023-05-10T02:29:10;94313.61;;;16.78;77.90
76990;BME280;65924;47.250;11.332;2023-05-10T02:29:51;94311.84;;;16.79;78.21
76990;BME280;65924;47.250;11.332;2023-05-10T02:30:31;94313.98;;;16.78;78.08
76990;BME280;65924;47.250;11.332;2023-05-10T02:31:11;94313.83;;;16.78;77.82
76990;BME280;65924;47.250;11.332;2023-05-10T02:31:52;94312.76;;;16.76;78.00
76990;BME280;65924;47.250;11.332;2023-05-10T02:32:31;94313.63;;;16.76;77.82
76990;BME280;65924;47.250;11.332;2023-05-10T02:33:11;94310.56;;;16.76;78.01
76990;BME280;65924;47.250;11.332;2023-05-10T02:33:50;94314.00;;;16.76;78.11
76990;BME280;65924;47.250;11.332;2023-05-10T02:34:30;94312.41;;;16.76;78.11
76990;BME280;65924;47.250;11.332;2023-05-10T02:35:10;94311.86;;;16.77;77.73
76990;BME280;65924;47.250;11.332;2023-05-10T02:35:50;94311.84;;;16.77;78.26
76990;BME280;65924;47.250;11.332;2023-05-10T02:36:30;94313.81;;;16.78;78.35
76990;BME280;65924;47.250;11.332;2023-05-10T02:37:10;94314.77;;;16.75;79.53
76990;BME280;65924;47.250;11.332;2023-05-10T02:37:50;94316.90;;;16.73;80.99
76990;BME280;65924;47.250;11.332;2023-05-10T02:38:30;94314.20;;;16.72;81.65
76990;BME280;65924;47.250;11.332;2023-05-10T02:39:11;94313.59;;;16.73;82.25
76990;BME280;65924;47.250;11.332;2023-05-10T02:39:53;94314.79;;;16.73;82.61
76990;BME280;65924;47.250;11.332;2023-05-10T02:40:33;94314.94;;;16.75;82.48
76990;BME280;65924;47.250;11.332;2023-05-10T02:41:14;94313.81;;;16.74;81.23
76990;BME280;65924;47.250;11.332;2023-05-10T02:41:54;94313.62;;;16.73;81.57
76990;BME280;65924;47.250;11.332;2023-05-10T02:42:36;94314.01;;;16.72;81.61
76990;BME280;65924;47.250;11.332;2023-05-10T02:43:16;94312.36;;;16.72;81.27
76990;BME280;65924;47.250;11.332;2023-05-10T02:43:59;94309.91;;;16.71;81.20
76990;BME280;65924;47.250;11.332;2023-05-10T02:44:41;94309.08;;;16.70;81.41
76990;BME280;65924;47.250;11.332;2023-05-10T02:45:23;94310.36;;;16.71;80.99
76990;BME280;65924;47.250;11.332;2023-05-10T02:46:03;94314.20;;;16.72;80.63
76990;BME280;65924;47.250;11.332;2023-05-10T02:46:42;94312.21;;;16.73;79.95
76990;BME280;65924;47.250;11.332;2023-05-10T02:47:21;94315.35;;;16.74;79.64
76990;BME280;65924;47.250;11.332;2023-05-10T02:48:00;94314.13;;;16.75;79.43
76990;BME280;65924;47.250;11.332;2023-05-10T02:48:39;94313.83;;;16.74;78.66
76990;BME280;65924;47.250;11.332;2023-05-10T02:49:18;94313.13;;;16.74;77.97
76990;BME280;65924;47.250;11.332;2023-05-10T02:49:56;94314.41;;;16.74;78.22
76990;BME280;65924;47.250;11.332;2023-05-10T02:50:36;94314.63;;;16.73;78.03
76990;BME280;65924;47.250;11.332;2023-05-10T02:51:16;94311.03;;;16.71;77.99
76990;BME280;65924;47.250;11.332;2023-05-10T02:52:00;94315.82;;;16.73;78.09
76990;BME280;65924;47.250;11.332;2023-05-10T02:52:44;94311.70;;;16.73;77.43
76990;BME280;65924;47.250;11.332;2023-05-10T02:53:31;94315.23;;;16.72;77.99
76990;BME280;65924;47.250;11.332;2023-05-10T02:54:19;94314.17;;;16.72;77.83
76990;BME280;65924;47.250;11.332;2023-05-10T02:55:00;94309.90;;;16.72;78.43
76990;BME280;65924;47.250;11.332;2023-05-10T02:55:43;94309.70;;;16.73;78.20
76990;BME280;65924;47.250;11.332;2023-05-10T02:56:36;94308.38;;;16.72;78.36
76990;BME280;65924;47.250;11.332;2023-05-10T02:57:22;94307.26;;;16.73;78.71
76990;BME280;65924;47.250;11.332;2023-05-10T02:58:03;94307.45;;;16.73;77.45
76990;BME280;65924;47.250;11.332;2023-05-10T02:58:42;94310.45;;;16.72;77.28
76990;BME280;65924;47.250;11.332;2023-05-10T02:59:21;94308.30;;;16.71;77.61
76990;BME280;65924;47.250;11.332;2023-05-10T03:00:01;94306.92;;;16.71;77.66
76990;BME280;65924;47.250;11.332;2023-05-10T03:00:43;94307.31;;;16.72;78.02
76990;BME280;65924;47.250;11.332;2023-05-10T03:01:21;94305.94;;;16.72;77.89
76990;BME280;65924;47.250;11.332;2023-05-10T03:02:00;94307.02;;;16.74;77.78
76990;BME280;65924;47.250;11.332;2023-05-10T03:02:40;94309.48;;;16.73;77.62
76990;BME280;65924;47.250;11.332;2023-05-10T03:03:20;94309.93;;;16.74;77.62
76990;BME280;65924;47.250;11.332;2023-05-10T03:04:01;94309.41;;;16.74;77.54
76990;BME280;65924;47.250;11.332;2023-05-10T03:04:39;94306.70;;;16.73;77.54
76990;BME280;65924;47.250;11.332;2023-05-10T03:05:18;94306.90;;;16.73;77.50
76990;BME280;65924;47.250;11.332;2023-05-10T03:05:57;94309.34;;;16.73;77.25
76990;BME280;65924;47.250;11.332;2023-05-10T03:06:37;94306.80;;;16.72;77.18
76990;BME280;65924;47.250;11.332;2023-05-10T03:07:16;94310.11;;;16.72;77.04
76990;BME280;65924;47.250;11.332;2023-05-10T03:08:00;94306.75;;;16.71;77.38
76990;BME280;65924;47.250;11.332;2023-05-10T03:08:43;94309.20;;;16.71;76.96
76990;BME280;65924;47.250;11.332;2023-05-10T03:09:23;94310.79;;;16.70;77.27
76990;BME280;65924;47.250;11.332;2023-05-10T03:10:02;94307.04;;;16.70;77.68
76990;BME280;65924;47.250;11.332;2023-05-10T03:11:00;94308.65;;;16.69;78.04
76990;BME280;65924;47.250;11.332;2023-05-10T03:13:20;94309.71;;;16.64;76.84
76990;BME280;65924;47.250;11.332;2023-05-10T03:14:21;94311.05;;;16.64;78.11
76990;BME280;65924;47.250;11.332;2023-05-10T03:16:45;94314.30;;;16.66;78.80
76990;BME280;65924;47.250;11.332;2023-05-10T03:18:23;94316.61;;;16.67;78.05
76990;BME280;65924;47.250;11.332;2023-05-10T03:19:53;94316.64;;;16.68;78.85
76990;BME280;65924;47.250;11.332;2023-05-10T03:20:36;94316.86;;;16.68;78.22
76990;BME280;65924;47.250;11.332;2023-05-10T03:21:18;94318.58;;;16.68;77.98
76990;BME280;65924;47.250;11.332;2023-05-10T03:21:59;94314.10;;;16.68;77.83
76990;BME280;65924;47.250;11.332;2023-05-10T03:22:49;94315.27;;;16.68;78.15
76990;BME280;65924;47.250;11.332;2023-05-10T03:23:34;94318.30;;;16.69;78.40
76990;BME280;65924;47.250;11.332;2023-05-10T03:24:14;94317.59;;;16.69;77.47
76990;BME280;65924;47.250;11.332;2023-05-10T03:24:58;94321.85;;;16.70;77.91
76990;BME280;65924;47.250;11.332;2023-05-10T03:25:41;94320.05;;;16.70;78.36
76990;BME280;65924;47.250;11.332;2023-05-10T03:26:27;94320.60;;;16.70;77.85
76990;BME280;65924;47.250;11.332;2023-05-10T03:27:13;94321.15;;;16.68;77.04
76990;BME280;65924;47.250;11.332;2023-05-10T03:27:53;94322.35;;;16.66;77.73
76990;BME280;65924;47.250;11.332;2023-05-10T03:28:34;94318.17;;;16.63;78.28
76990;BME280;65924;47.250;11.332;2023-05-10T03:29:14;94318.21;;;16.60;78.14
76990;BME280;65924;47.250;11.332;2023-05-10T03:29:55;94319.91;;;16.59;79.21
76990;BME280;65924;47.250;11.332;2023-05-10T03:30:35;94323.87;;;16.59;79.26
76990;BME280;65924;47.250;11.332;2023-05-10T03:31:15;94324.39;;;16.59;79.02
76990;BME280;65924;47.250;11.332;2023-05-10T03:31:54;94326.50;;;16.58;79.25
76990;BME280;65924;47.250;11.332;2023-05-10T03:32:33;94327.77;;;16.57;79.37
76990;BME280;65924;47.250;11.332;2023-05-10T03:33:13;94325.75;;;16.57;79.58
76990;BME280;65924;47.250;11.332;2023-05-10T03:33:56;94327.69;;;16.57;79.93
76990;BME280;65924;47.250;11.332;2023-05-10T03:34:41;94331.35;;;16.58;79.95
76990;BME280;65924;47.250;11.332;2023-05-10T03:35:21;94329.48;;;16.57;79.70
76990;BME280;65924;47.250;11.332;2023-05-10T03:36:00;94330.48;;;16.58;79.18
76990;BME280;65924;47.250;11.332;2023-05-10T03:36:38;94331.35;;;16.58;79.27
76990;BME280;65924;47.250;11.332;2023-05-10T03:37:17;94332.05;;;16.57;78.75
76990;BME280;65924;47.250;11.332;2023-05-10T03:37:55;94334.80;;;16.57;78.41
76990;BME280;65924;47.250;11.332;2023-05-10T03:38:34;94332.42;;;16.55;77.64
76990;BME280;65924;47.250;11.332;2023-05-10T03:39:13;94334.63;;;16.54;78.44
76990;BME280;65924;47.250;11.332;2023-05-10T03:39:51;94333.06;;;16.51;78.21
76990;BME280;65924;47.250;11.332;2023-05-10T03:40:30;94330.93;;;16.51;77.97
76990;BME280;65924;47.250;11.332;2023-05-10T03:41:10;94331.79;;;16.50;77.87
76990;BME280;65924;47.250;11.332;2023-05-10T03:41:49;94332.70;;;16.47;77.08
76990;BME280;65924;47.250;11.332;2023-05-10T03:42:27;94335.73;;;16.44;76.80
76990;BME280;65924;47.250;11.332;2023-05-10T03:43:06;94334.15;;;16.41;77.31
76990;BME280;65924;47.250;11.332;2023-05-10T03:43:45;94334.34;;;16.39;76.83
76990;BME280;65924;47.250;11.332;2023-05-10T03:44:23;94339.55;;;16.35;76.62
76990;BME280;65924;47.250;11.332;2023-05-10T03:45:02;94339.22;;;16.31;76.48
76990;BME280;65924;47.250;11.332;2023-05-10T03:45:41;94335.43;;;16.26;77.08
76990;BME280;65924;47.250;11.332;2023-05-10T03:46:19;94339.83;;;16.24;77.00
76990;BME280;65924;47.250;11.332;2023-05-10T03:46:58;94341.93;;;16.22;76.20
76990;BME280;65924;47.250;11.332;2023-05-10T03:47:37;94342.70;;;16.19;77.30
76990;BME280;65924;47.250;11.332;2023-05-10T03:48:16;94344.98;;;16.18;77.74
76990;BME280;65924;47.250;11.332;2023-05-10T03:48:55;94343.65;;;16.18;77.85
76990;BME280;65924;47.250;11.332;2023-05-10T03:49:33;94343.35;;;16.17;77.95
76990;BME280;65924;47.250;11.332;2023-05-10T03:50:12;94347.33;;;16.17;77.93
76990;BME280;65924;47.250;11.332;2023-05-10T03:50:50;94344.27;;;16.17;77.76
76990;BME280;65924;47.250;11.332;2023-05-10T03:51:29;94346.55;;;16.16;77.99
76990;BME280;65924;47.250;11.332;2023-05-10T03:52:09;94345.92;;;16.16;77.36
76990;BME280;65924;47.250;11.332;2023-05-10T03:52:48;94345.41;;;16.14;77.51
76990;BME280;65924;47.250;11.332;2023-05-10T03:53:26;94344.61;;;16.11;77.98